Time;durP1;ratioP1;P1;durP2;ratioP2;P2;SDS_P1;SDS_P2;PMS_P1;PMS_P2;Temp;Humidity;BMP_temperature;BMP_pressure;BME280_temperature;BME280_humidity;BME280_pressure;Samples;Min_cycle;Max_cycle;Signal;HPM_P1;HPM_P2
2022/11/17 00:00:03;;;;;;;30.05;19.98;;;8.30;99.90;;;;;;6140544;23;20013;-88
2022/11/17 00:02:29;;;;;;;28.63;19.15;;;8.30;99.90;;;;;;6138955;23;20017;-89
2022/11/17 00:04:54;;;;;;;28.77;19.35;;;8.30;99.90;;;;;;6140561;23;20020;-90
2022/11/17 00:07:20;;;;;;;27.33;19.80;;;8.30;99.90;;;;;;6141080;23;20435;-89
2022/11/17 00:09:45;;;;;;;25.88;18.90;;;8.30;99.90;;;;;;6141053;23;20366;-90
2022/11/17 00:14:55;;;;;;;28.30;19.35;;;8.30;99.90;;;;;;6166191;23;20103;-89
2022/11/17 00:17:21;;;;;;;25.13;18.75;;;8.30;99.90;;;;;;6164531;23;20060;-89
2022/11/17 00:22:31;;;;;;;24.63;19.08;;;8.30;99.90;;;;;;6165888;23;20017;-87
2022/11/17 00:24:57;;;;;;;24.92;18.20;;;8.30;99.90;;;;;;6141107;23;20503;-90
2022/11/17 00:27:23;;;;;;;27.45;18.10;;;8.30;99.90;;;;;;6141395;23;20009;-89
2022/11/17 00:29:52;;;;;;;23.83;18.23;;;8.30;99.90;;;;;;6140554;23;20054;-90
2022/11/17 00:35:05;;;;;;;27.08;18.08;;;8.30;99.90;;;;;;6165432;23;20106;-88
2022/11/17 00:37:36;;;;;;;24.70;17.42;;;8.30;99.90;;;;;;6164524;23;20032;-89
2022/11/17 00:40:03;;;;;;;24.45;18.58;;;8.30;99.90;;;;;;6140390;23;20013;-88
2022/11/17 00:42:28;;;;;;;23.13;18.15;;;8.30;99.90;;;;;;6140115;23;20009;-89
2022/11/17 00:44:54;;;;;;;21.67;17.48;;;8.30;99.90;;;;;;6141225;23;20010;-89
2022/11/17 00:47:20;;;;;;;20.83;17.10;;;8.30;99.90;;;;;;6140490;23;20086;-89
2022/11/17 00:49:45;;;;;;;23.55;17.63;;;8.30;99.90;;;;;;6140321;23;20048;-89
2022/11/17 00:52:11;;;;;;;22.00;16.60;;;8.30;99.90;;;;;;6141943;23;20125;-88
2022/11/17 00:54:37;;;;;;;21.70;16.70;;;8.30;99.90;;;;;;6139908;23;20450;-89
2022/11/17 00:57:02;;;;;;;20.88;16.38;;;8.30;99.90;;;;;;6140788;23;20024;-87
2022/11/17 00:59:28;;;;;;;20.17;15.73;;;8.30;99.90;;;;;;6141102;23;20051;-90
2022/11/17 01:01:54;;;;;;;20.45;16.50;;;8.30;99.90;;;;;;6140462;23;20341;-89
2022/11/17 01:04:19;;;;;;;18.67;15.18;;;8.30;99.90;;;;;;6140549;23;20399;-89
2022/11/17 01:06:47;;;;;;;20.50;15.90;;;8.30;99.90;;;;;;6139990;23;20025;-89
2022/11/17 01:09:19;;;;;;;21.67;16.20;;;8.30;99.90;;;;;;6140076;23;20384;-89
2022/11/17 01:11:46;;;;;;;20.95;16.50;;;8.30;99.90;;;;;;6141474;23;20054;-88
2022/11/17 01:14:15;;;;;;;18.42;15.60;;;8.30;99.90;;;;;;6141812;23;20408;-89
2022/11/17 01:16:40;;;;;;;21.02;15.90;;;8.30;99.90;;;;;;6141633;23;20021;-88
2022/11/17 01:19:06;;;;;;;21.65;16.10;;;8.30;99.90;;;;;;6139364;23;20028;-89
2022/11/17 01:21:35;;;;;;;23.52;15.68;;;8.20;99.90;;;;;;6140565;23;20013;-90
2022/11/17 01:24:01;;;;;;;17.52;14.85;;;8.30;99.90;;;;;;6140833;23;20024;-90
2022/11/17 01:26:33;;;;;;;18.05;15.52;;;8.30;99.90;;;;;;6139790;23;20013;-88
2022/11/17 01:29:00;;;;;;;18.60;15.73;;;8.30;99.90;;;;;;6141093;23;20009;-88
2022/11/17 01:31:28;;;;;;;23.00;16.30;;;8.20;99.90;;;;;;6139524;23;20017;-90
2022/11/17 01:33:55;;;;;;;19.75;15.27;;;8.30;99.90;;;;;;6138814;23;20074;-89
2022/11/17 01:39:15;;;;;;;21.65;16.42;;;8.20;99.90;;;;;;6164151;23;20032;-89
2022/11/17 01:41:41;;;;;;;20.20;16.33;;;8.20;99.90;;;;;;6139684;23;20300;-90
2022/11/17 01:44:35;;;;;;;20.17;16.30;;;8.20;99.90;;;;;;6140292;23;20013;-89
2022/11/17 01:47:03;;;;;;;21.45;16.10;;;8.20;99.90;;;;;;6139908;23;20013;-89
2022/11/17 01:49:29;;;;;;;20.20;16.45;;;8.20;99.90;;;;;;6139606;23;20048;-88
2022/11/17 01:51:59;;;;;;;20.75;15.23;;;8.20;99.90;;;;;;6138887;23;20075;-90
2022/11/17 01:54:27;;;;;;;21.95;16.23;;;8.20;99.90;;;;;;6139397;23;20020;-88
2022/11/17 01:57:00;;;;;;;19.90;15.25;;;8.30;99.90;;;;;;6165902;23;20224;-88
2022/11/17 01:59:42;;;;;;;20.70;15.85;;;8.20;99.90;;;;;;6163135;23;20013;-90
2022/11/17 02:02:07;;;;;;;17.55;15.27;;;8.20;99.90;;;;;;6140748;23;20021;-89
2022/11/17 02:04:43;;;;;;;20.38;16.17;;;8.20;99.90;;;;;;6140015;23;20077;-88
2022/11/17 02:07:24;;;;;;;17.98;14.55;;;8.20;99.90;;;;;;6141693;23;20066;-89
2022/11/17 02:09:52;;;;;;;19.55;15.27;;;8.20;99.90;;;;;;6140990;23;20017;-90
2022/11/17 02:12:20;;;;;;;18.13;15.38;;;8.20;99.90;;;;;;6140807;23;20017;-88
2022/11/17 02:14:48;;;;;;;19.55;15.93;;;8.10;99.90;;;;;;6140503;23;20017;-88
2022/11/17 02:17:13;;;;;;;21.55;15.35;;;8.20;99.90;;;;;;6141071;23;20074;-89
2022/11/17 02:19:41;;;;;;;18.52;15.85;;;8.20;99.90;;;;;;6139754;23;20013;-89
2022/11/17 02:22:19;;;;;;;20.05;15.05;;;8.20;99.90;;;;;;6141388;23;20027;-89
2022/11/17 02:24:56;;;;;;;21.45;15.88;;;8.20;99.90;;;;;;6140691;23;20511;-89
2022/11/17 02:27:46;;;;;;;20.60;14.82;;;8.10;99.90;;;;;;6139734;23;20438;-88
2022/11/17 02:30:17;;;;;;;19.15;14.30;;;8.10;99.90;;;;;;6139693;22;20100;-90
2022/11/17 02:32:55;;;;;;;20.23;15.45;;;8.10;99.90;;;;;;6138315;23;20370;-89
2022/11/17 02:35:50;;;;;;;19.55;15.55;;;8.10;99.90;;;;;;6163608;23;20144;-89
2022/11/17 02:38:28;;;;;;;21.25;15.90;;;8.10;99.90;;;;;;6139560;23;20021;-90
2022/11/17 02:41:22;;;;;;;23.27;16.98;;;8.10;99.90;;;;;;6141199;23;20013;-88
2022/11/17 02:44:28;;;;;;;18.95;16.25;;;8.10;99.90;;;;;;6153104;23;20013;-87
2022/11/17 02:46:57;;;;;;;;;;;8.10;99.90;;;;;;6172024;22;20351;-88
2022/11/17 02:49:35;;;;;;;19.80;16.10;;;8.10;99.90;;;;;;6138616;23;20522;-89
2022/11/17 02:52:02;;;;;;;20.45;17.10;;;8.10;99.90;;;;;;6138421;23;20031;-91
2022/11/17 02:54:31;;;;;;;23.13;17.38;;;8.10;99.90;;;;;;6139481;23;20247;-90
2022/11/17 02:56:56;;;;;;;24.83;17.98;;;8.00;99.90;;;;;;6141466;23;20052;-89
2022/11/17 02:59:29;;;;;;;23.15;17.98;;;8.00;99.90;;;;;;6140321;23;20017;-89
2022/11/17 03:02:38;;;;;;;25.08;18.45;;;8.00;99.90;;;;;;6165555;23;20021;-89
2022/11/17 03:05:25;;;;;;;26.30;17.60;;;8.00;99.90;;;;;;6140493;23;20049;-88
2022/11/17 03:08:18;;;;;;;25.13;18.05;;;8.00;99.90;;;;;;6139325;23;20017;-91
2022/11/17 03:11:01;;;;;;;26.27;19.00;;;8.00;99.90;;;;;;6139642;23;20021;-88
2022/11/17 03:13:49;;;;;;;23.45;17.58;;;7.90;99.90;;;;;;6165010;23;20012;-89
2022/11/17 03:16:55;;;;;;;24.15;18.52;;;8.00;99.90;;;;;;6166042;23;20457;-87
2022/11/17 03:19:40;;;;;;;29.77;20.77;;;7.90;99.90;;;;;;6138295;23;20523;-88
2022/11/17 03:22:09;;;;;;;;;;;7.90;99.90;;;;;;6139267;23;20020;-90
2022/11/17 03:24:40;;;;;;;23.70;16.85;;;7.90;99.90;;;;;;6139904;23;19997;-89
2022/11/17 03:27:27;;;;;;;22.77;17.77;;;7.90;99.90;;;;;;6138930;23;20013;-89
2022/11/17 03:30:00;;;;;;;24.67;18.10;;;7.90;99.90;;;;;;6139301;23;20021;-90
2022/11/17 03:32:34;;;;;;;27.02;19.48;;;7.90;99.90;;;;;;6140453;23;20449;-88
2022/11/17 03:35:04;;;;;;;25.33;19.60;;;7.90;99.90;;;;;;6139815;23;20021;-89
2022/11/17 03:37:33;;;;;;;25.98;18.70;;;7.80;99.90;;;;;;6139857;23;20376;-88
2022/11/17 03:40:04;;;;;;;26.02;19.10;;;7.80;99.90;;;;;;6164557;23;20111;-88
2022/11/17 03:42:34;;;;;;;25.35;19.13;;;7.80;99.90;;;;;;6140412;23;20419;-89
2022/11/17 03:45:19;;;;;;;26.73;19.73;;;7.80;99.90;;;;;;6140021;23;20021;-89
2022/11/17 03:47:47;;;;;;;28.17;19.08;;;7.90;99.90;;;;;;6162971;23;20404;-87
2022/11/17 03:50:36;;;;;;;24.63;18.77;;;7.80;99.90;;;;;;6140509;23;20534;-89
2022/11/17 03:53:08;;;;;;;27.20;18.80;;;7.80;99.90;;;;;;6141810;23;20024;-89
2022/11/17 03:55:44;;;;;;;27.77;18.52;;;7.80;99.90;;;;;;6139476;23;20017;-89
2022/11/17 03:58:32;;;;;;;26.10;19.88;;;7.80;99.90;;;;;;6164387;23;20087;-89
2022/11/17 04:01:05;;;;;;;28.85;20.90;;;7.70;99.90;;;;;;6267706;22;20017;-90
2022/11/17 04:03:32;;;;;;;25.80;19.65;;;7.80;99.90;;;;;;6116182;23;20104;-89
2022/11/17 04:05:59;;;;;;;25.25;18.10;;;7.70;99.90;;;;;;6116424;23;20024;-90
2022/11/17 04:08:28;;;;;;;26.15;18.27;;;7.70;99.90;;;;;;6114363;23;20052;-90
2022/11/17 04:16:23;;;;;;;24.80;18.85;;;7.70;99.90;;;;;;6271094;22;20366;-88
2022/11/17 04:18:50;;;;;;;23.88;17.63;;;7.70;99.90;;;;;;6114864;23;20017;-91
2022/11/17 04:21:16;;;;;;;21.52;17.33;;;7.70;99.90;;;;;;6140493;22;20024;-90
2022/11/17 04:23:44;;;;;;;23.42;18.55;;;7.60;99.90;;;;;;6115374;23;20314;-88
2022/11/17 04:28:54;;;;;;;22.20;18.17;;;7.60;99.90;;;;;;6270587;22;20070;-91
2022/11/17 04:31:21;;;;;;;23.50;17.65;;;7.60;99.90;;;;;;6115327;23;20021;-88
2022/11/17 04:33:58;;;;;;;23.23;16.98;;;7.50;99.90;;;;;;6114119;23;20108;-90
2022/11/17 04:36:34;;;;;;;23.02;17.63;;;7.60;99.90;;;;;;6114090;23;20016;-89
2022/11/17 04:39:00;;;;;;;22.33;17.58;;;7.60;99.90;;;;;;6114822;23;20271;-89
2022/11/17 04:44:15;;;;;;;20.73;16.33;;;7.50;99.90;;;;;;6269906;22;20031;-90
2022/11/17 04:46:43;;;;;;;22.88;17.25;;;7.60;99.90;;;;;;6116580;23;20028;-89
2022/11/17 04:49:09;;;;;;;21.52;15.98;;;7.50;99.90;;;;;;6139561;23;20013;-89
2022/11/17 04:51:35;;;;;;;22.08;16.13;;;7.50;99.90;;;;;;6140014;23;20020;-90
2022/11/17 04:54:02;;;;;;;21.65;15.95;;;7.50;99.90;;;;;;6115856;23;20061;-88
2022/11/17 04:56:28;;;;;;;24.52;16.73;;;7.50;99.90;;;;;;6116536;23;20024;-89
2022/11/17 04:58:57;;;;;;;20.15;15.10;;;7.40;99.90;;;;;;6116701;23;20445;-90
2022/11/17 05:01:24;;;;;;;22.23;14.57;;;7.50;99.90;;;;;;6120524;23;20119;-89
2022/11/17 05:03:52;;;;;;;22.50;14.90;;;7.50;99.90;;;;;;6139413;23;20083;-88
2022/11/17 05:06:44;;;;;;;19.77;14.95;;;7.40;99.90;;;;;;6115507;23;20086;-89
2022/11/17 05:09:12;;;;;;;18.90;14.52;;;7.40;99.90;;;;;;6118920;23;20044;-90
2022/11/17 05:14:24;;;;;;;19.08;14.57;;;7.40;99.90;;;;;;6271755;22;20017;-90
2022/11/17 05:17:08;;;;;;;18.13;14.00;;;7.30;99.90;;;;;;6116193;23;20067;-87
2022/11/17 05:19:45;;;;;;;20.00;15.60;;;7.30;99.90;;;;;;6113557;23;20017;-89
2022/11/17 05:24:58;;;;;;;20.40;14.82;;;7.30;99.90;;;;;;6271468;22;20048;-90
2022/11/17 05:27:24;;;;;;;19.35;14.48;;;7.30;99.90;;;;;;6114520;23;20090;-89
2022/11/17 05:29:49;;;;;;;20.85;15.18;;;7.20;99.90;;;;;;6140251;23;20053;-88
2022/11/17 05:32:15;;;;;;;19.23;14.35;;;7.30;99.90;;;;;;6116219;23;20100;-90
2022/11/17 05:34:41;;;;;;;18.42;13.82;;;7.20;99.90;;;;;;6115528;23;20357;-89
2022/11/17 05:37:06;;;;;;;18.30;14.55;;;7.20;99.90;;;;;;6116509;23;20013;-88
2022/11/17 05:39:32;;;;;;;22.48;14.48;;;7.10;99.90;;;;;;6116035;23;20021;-89
2022/11/17 05:41:58;;;;;;;18.45;13.75;;;7.20;99.90;;;;;;6117116;23;20244;-89
2022/11/17 05:44:23;;;;;;;17.10;12.85;;;7.10;99.90;;;;;;6115765;23;20020;-89
2022/11/17 05:46:49;;;;;;;16.25;11.98;;;7.20;99.90;;;;;;6116250;23;20017;-90
2022/11/17 05:49:15;;;;;;;18.70;11.98;;;7.10;99.90;;;;;;6116088;23;20071;-90
2022/11/17 05:51:41;;;;;;;16.42;12.75;;;7.10;99.90;;;;;;6117519;23;20025;-89
2022/11/17 05:54:06;;;;;;;16.73;12.40;;;7.10;99.90;;;;;;6117443;23;20046;-89
2022/11/17 05:56:41;;;;;;;15.02;11.52;;;7.10;99.90;;;;;;6117316;23;20289;-89
2022/11/17 05:59:28;;;;;;;14.27;10.68;;;7.00;99.90;;;;;;6115979;23;20017;-89
2022/11/17 06:02:02;;;;;;;16.33;10.55;;;7.10;99.90;;;;;;6125116;23;20017;-89
2022/11/17 06:04:28;;;;;;;13.77;10.70;;;7.00;99.90;;;;;;6136824;23;20056;-89
2022/11/17 06:06:58;;;;;;;13.50;10.00;;;7.00;99.90;;;;;;6162485;23;20024;-87
2022/11/17 06:09:30;;;;;;;12.05;8.52;;;7.10;99.90;;;;;;6137596;23;20362;-90
2022/11/17 06:11:56;;;;;;;13.27;9.57;;;7.00;99.90;;;;;;6136307;23;20017;-89
2022/11/17 06:14:21;;;;;;;13.25;9.70;;;7.00;99.90;;;;;;6138140;23;20024;-90
2022/11/17 06:16:52;;;;;;;14.27;9.38;;;7.00;99.90;;;;;;6136349;23;20032;-89
2022/11/17 06:19:25;;;;;;;13.52;10.10;;;7.10;99.90;;;;;;6136657;23;20100;-89
2022/11/17 06:21:51;;;;;;;11.50;8.32;;;7.10;99.90;;;;;;6163181;23;20020;-89
2022/11/17 06:24:17;;;;;;;12.55;9.35;;;7.00;99.90;;;;;;6136763;23;20052;-90
2022/11/17 06:26:43;;;;;;;12.65;9.50;;;7.00;99.90;;;;;;6161191;23;20028;-89
2022/11/17 06:29:11;;;;;;;13.55;9.20;;;7.00;99.90;;;;;;6136929;23;20016;-87
2022/11/17 06:31:38;;;;;;;11.10;9.30;;;7.10;99.90;;;;;;6137000;23;20667;-90
2022/11/17 06:34:04;;;;;;;12.30;9.38;;;7.10;99.90;;;;;;6136170;23;20091;-89
2022/11/17 06:36:30;;;;;;;11.30;8.70;;;7.10;99.90;;;;;;6133628;23;20168;-90
2022/11/17 06:38:57;;;;;;;12.40;9.15;;;7.10;99.90;;;;;;6136663;23;20270;-88
2022/11/17 06:41:23;;;;;;;13.93;8.70;;;7.10;99.90;;;;;;6162803;23;20017;-90
2022/11/17 06:43:48;;;;;;;11.18;8.32;;;7.10;99.90;;;;;;6137607;23;20446;-89
2022/11/17 06:46:14;;;;;;;12.63;8.43;;;7.00;99.90;;;;;;6138875;23;20017;-88
2022/11/17 06:48:40;;;;;;;10.65;8.38;;;7.00;99.90;;;;;;6136041;23;20020;-89
2022/11/17 06:51:06;;;;;;;11.15;8.98;;;7.10;99.90;;;;;;6137569;23;20024;-90
2022/11/17 06:53:33;;;;;;;16.80;8.93;;;7.10;99.90;;;;;;6136996;23;20082;-90
2022/11/17 06:56:09;;;;;;;10.02;8.25;;;7.00;99.90;;;;;;6137090;23;20432;-89
2022/11/17 06:58:37;;;;;;;10.85;8.43;;;7.00;99.90;;;;;;6138333;23;20029;-89
2022/11/17 07:01:05;;;;;;;11.60;9.02;;;7.00;99.90;;;;;;6115080;23;1142714;-91
2022/11/17 07:03:36;;;;;;;9.88;8.07;;;7.00;99.90;;;;;;6138398;23;20321;-89
2022/11/17 07:06:04;;;;;;;11.48;8.27;;;7.10;99.90;;;;;;6139986;23;20024;-90
2022/11/17 07:08:30;;;;;;;11.65;8.50;;;7.00;99.90;;;;;;6137338;23;20017;-89
2022/11/17 07:11:11;;;;;;;13.23;9.27;;;7.00;99.90;;;;;;6138693;23;20032;-90
2022/11/17 07:13:37;;;;;;;10.80;8.48;;;7.00;99.90;;;;;;6163446;23;20510;-89
2022/11/17 07:16:11;;;;;;;11.15;8.85;;;7.00;99.90;;;;;;6140588;23;20021;-91
2022/11/17 07:18:39;;;;;;;11.95;8.80;;;7.00;99.90;;;;;;6138393;23;20085;-90
2022/11/17 07:21:08;;;;;;;12.23;8.88;;;7.00;99.90;;;;;;6138732;23;20021;-90
2022/11/17 07:23:34;;;;;;;11.38;8.45;;;7.00;99.90;;;;;;6138574;23;20376;-91
2022/11/17 07:26:00;;;;;;;11.05;8.95;;;7.10;99.90;;;;;;6139747;23;20017;-90
2022/11/17 07:28:27;;;;;;;10.75;8.57;;;7.00;99.90;;;;;;6139372;23;20450;-89
2022/11/17 07:31:01;;;;;;;11.70;8.73;;;7.00;99.90;;;;;;6139881;23;20017;-89
2022/11/17 07:33:26;;;;;;;9.77;7.25;;;7.00;99.90;;;;;;6138707;23;20013;-91
2022/11/17 07:35:54;;;;;;;10.73;8.48;;;7.00;99.90;;;;;;6139259;23;20436;-89
2022/11/17 07:38:20;;;;;;;11.15;8.40;;;7.00;99.90;;;;;;6139742;23;20020;-90
2022/11/17 07:40:46;;;;;;;10.95;8.02;;;6.90;99.90;;;;;;6138458;23;20028;-88
2022/11/17 07:43:12;;;;;;;10.10;7.80;;;7.00;99.90;;;;;;6140706;23;20092;-90
2022/11/17 07:45:37;;;;;;;9.15;7.55;;;6.90;99.90;;;;;;6142040;23;20315;-90
2022/11/17 07:48:05;;;;;;;9.32;7.47;;;7.00;99.90;;;;;;6139006;23;20340;-89
2022/11/17 07:50:31;;;;;;;10.18;7.45;;;7.00;99.90;;;;;;6139876;23;20359;-90
2022/11/17 07:52:57;;;;;;;9.73;7.68;;;7.00;99.90;;;;;;6141046;23;20028;-90
2022/11/17 07:55:24;;;;;;;10.82;8.07;;;7.00;99.90;;;;;;6140637;23;20120;-89
2022/11/17 07:57:57;;;;;;;9.90;7.43;;;7.00;99.90;;;;;;6140557;23;20021;-91
2022/11/17 08:00:24;;;;;;;9.60;7.35;;;7.00;99.90;;;;;;6140039;23;20013;-88
2022/11/17 08:02:50;;;;;;;9.00;7.40;;;7.00;99.90;;;;;;6138725;23;20511;-92
2022/11/17 08:05:16;;;;;;;9.32;7.40;;;6.90;99.90;;;;;;6140845;23;20048;-90
2022/11/17 08:07:53;;;;;;;9.75;7.03;;;7.00;99.90;;;;;;6139484;23;20017;-88
2022/11/17 08:10:19;;;;;;;9.35;7.28;;;7.00;99.90;;;;;;6140601;23;20191;-87
2022/11/17 08:12:51;;;;;;;8.90;7.28;;;7.00;99.90;;;;;;6139229;23;20132;-89
2022/11/17 08:15:17;;;;;;;9.50;7.68;;;7.00;99.90;;;;;;6141688;23;20036;-88
2022/11/17 08:17:43;;;;;;;9.77;7.20;;;7.00;99.90;;;;;;6139671;23;20017;-89
2022/11/17 08:20:11;;;;;;;9.35;6.90;;;7.00;99.90;;;;;;6140297;23;20055;-89
2022/11/17 08:22:39;;;;;;;10.18;7.40;;;7.00;99.90;;;;;;6142239;23;20100;-91
2022/11/17 08:25:05;;;;;;;10.20;7.40;;;7.10;99.90;;;;;;6139841;23;20445;-90
2022/11/17 08:27:32;;;;;;;9.00;7.80;;;7.10;99.90;;;;;;6139633;23;20052;-89
2022/11/17 08:29:58;;;;;;;9.57;7.00;;;7.10;99.90;;;;;;6140738;23;20055;-89
2022/11/17 08:32:23;;;;;;;8.70;7.50;;;7.00;99.90;;;;;;6140045;23;20017;-91
2022/11/17 08:34:49;;;;;;;9.00;7.70;;;7.10;99.90;;;;;;6139616;23;20020;-90
2022/11/17 08:37:14;;;;;;;10.50;7.95;;;7.10;99.90;;;;;;6141186;23;20017;-89
2022/11/17 08:39:40;;;;;;;10.45;7.80;;;7.10;99.90;;;;;;6140346;23;20047;-89
2022/11/17 08:42:06;;;;;;;10.63;8.35;;;7.20;99.90;;;;;;6140466;23;20013;-91
2022/11/17 08:44:31;;;;;;;10.13;8.68;;;7.10;99.90;;;;;;6141163;23;20017;-90
2022/11/17 08:46:57;;;;;;;9.57;8.10;;;7.20;99.90;;;;;;6140680;23;20017;-88
2022/11/17 08:49:23;;;;;;;10.32;8.25;;;7.20;99.90;;;;;;6139382;23;20020;-88
2022/11/17 08:51:48;;;;;;;11.45;8.55;;;7.10;99.90;;;;;;6139865;23;20757;-90
2022/11/17 08:54:14;;;;;;;11.23;8.65;;;7.20;99.90;;;;;;6139863;23;20021;-89
2022/11/17 08:56:39;;;;;;;11.32;9.00;;;7.20;99.90;;;;;;6164088;23;20477;-89
2022/11/17 08:59:05;;;;;;;11.32;8.30;;;7.30;99.90;;;;;;6139446;23;20025;-89
2022/11/17 09:01:31;;;;;;;10.77;8.75;;;7.20;99.90;;;;;;6139155;23;20031;-89
2022/11/17 09:03:57;;;;;;;10.98;9.23;;;7.20;99.90;;;;;;6137733;23;20062;-88
2022/11/17 09:06:23;;;;;;;10.65;8.50;;;7.30;99.90;;;;;;6164991;23;20017;-90
2022/11/17 09:08:52;;;;;;;11.00;8.77;;;7.30;99.90;;;;;;6139306;23;20341;-90
2022/11/17 09:11:19;;;;;;;9.48;7.93;;;7.20;99.90;;;;;;6139430;23;20098;-89
2022/11/17 09:13:45;;;;;;;10.18;8.30;;;7.20;99.90;;;;;;6140104;23;20020;-88
2022/11/17 09:16:14;;;;;;;10.75;8.60;;;7.20;99.90;;;;;;6139603;23;20025;-90
2022/11/17 09:18:40;;;;;;;10.55;8.38;;;7.10;99.90;;;;;;6138850;23;20025;-89
2022/11/17 09:21:09;;;;;;;11.20;7.85;;;7.20;99.90;;;;;;6138993;23;20017;-88
2022/11/17 09:23:35;;;;;;;10.88;8.80;;;7.10;99.90;;;;;;6139411;23;20048;-90
2022/11/17 09:26:07;;;;;;;11.43;8.45;;;7.30;99.90;;;;;;6139638;22;20021;-90
2022/11/17 09:28:33;;;;;;;9.60;7.93;;;7.30;99.90;;;;;;6139513;23;20180;-91
2022/11/17 09:30:59;;;;;;;10.65;8.48;;;7.30;99.90;;;;;;6141823;23;20015;-90
2022/11/17 09:33:25;;;;;;;10.82;7.75;;;7.20;99.90;;;;;;6139339;23;20024;-90
2022/11/17 09:35:50;;;;;;;9.77;7.70;;;7.30;99.90;;;;;;6139548;23;20324;-90
2022/11/17 09:38:16;;;;;;;9.02;7.78;;;7.20;99.90;;;;;;6139478;23;20013;-90
2022/11/17 09:40:42;;;;;;;8.88;7.57;;;7.30;99.90;;;;;;6140090;23;20048;-88
2022/11/17 09:43:21;;;;;;;8.90;7.20;;;7.20;99.90;;;;;;6141197;23;20457;-89
2022/11/17 09:45:47;;;;;;;10.48;7.78;;;7.20;99.90;;;;;;6141336;23;20126;-89
2022/11/17 09:48:26;;;;;;;10.98;7.95;;;7.30;99.90;;;;;;6163683;23;20017;-88
2022/11/17 09:50:57;;;;;;;10.00;7.47;;;7.40;99.90;;;;;;6140035;23;20109;-88
2022/11/17 09:53:34;;;;;;;8.55;7.03;;;7.40;99.90;;;;;;6139494;23;20019;-89
2022/11/17 09:56:02;;;;;;;8.30;7.40;;;7.30;99.90;;;;;;6139262;23;20100;-90
2022/11/17 09:58:49;;;;;;;8.75;7.55;;;7.40;99.90;;;;;;6139616;23;20070;-91
2022/11/17 10:01:20;;;;;;;8.63;7.13;;;7.30;99.90;;;;;;6139866;23;20454;-89
2022/11/17 10:03:48;;;;;;;10.02;7.55;;;7.30;99.90;;;;;;6113397;23;20208;-91
2022/11/17 10:06:28;;;;;;;9.80;7.78;;;7.20;99.90;;;;;;6115280;23;20013;-90
2022/11/17 10:09:01;;;;;;;9.30;7.40;;;7.30;99.90;;;;;;6115068;23;20047;-88
2022/11/17 10:11:32;;;;;;;9.30;7.28;;;7.20;99.90;;;;;;6140218;23;20013;-90
2022/11/17 10:14:06;;;;;;;9.43;7.03;;;7.30;99.90;;;;;;6115858;23;20580;-88
2022/11/17 10:16:32;;;;;;;8.88;7.43;;;7.30;99.90;;;;;;6114300;23;20013;-90
2022/11/17 10:19:01;;;;;;;10.00;7.10;;;7.20;99.90;;;;;;6114425;23;20131;-88
2022/11/17 10:21:30;;;;;;;9.43;7.40;;;7.20;99.90;;;;;;6113583;23;20013;-89
2022/11/17 10:24:00;;;;;;;9.35;7.28;;;7.30;99.90;;;;;;6114769;23;20009;-90
2022/11/17 10:26:26;;;;;;;10.90;6.90;;;7.30;99.90;;;;;;6115068;23;20017;-90
2022/11/17 10:29:13;;;;;;;8.18;6.68;;;7.50;99.90;;;;;;6115030;23;20013;-89
2022/11/17 10:31:44;;;;;;;8.93;7.70;;;7.50;99.90;;;;;;6115402;23;20013;-88
2022/11/17 10:34:30;;;;;;;10.07;7.00;;;7.60;99.90;;;;;;6114846;23;20024;-90
2022/11/17 10:37:03;;;;;;;9.15;6.72;;;7.50;99.90;;;;;;6113562;23;20067;-91
2022/11/17 10:39:32;;;;;;;8.23;6.97;;;7.40;99.90;;;;;;6113832;23;20052;-90
2022/11/17 10:42:01;;;;;;;8.23;6.78;;;7.40;99.90;;;;;;6115708;23;20263;-89
2022/11/17 10:44:30;;;;;;;7.63;6.82;;;7.40;99.90;;;;;;6114741;23;20086;-90
2022/11/17 10:47:02;;;;;;;8.50;6.70;;;7.50;99.90;;;;;;6115109;23;20017;-90
2022/11/17 10:49:37;;;;;;;7.32;6.35;;;7.50;99.90;;;;;;6113849;23;20144;-89
2022/11/17 10:52:15;;;;;;;8.60;7.07;;;7.50;99.90;;;;;;6114553;23;20691;-89
2022/11/17 10:54:41;;;;;;;8.43;6.30;;;7.50;99.90;;;;;;6139953;23;20052;-90
2022/11/17 10:57:21;;;;;;;7.25;6.30;;;7.50;99.90;;;;;;6115064;23;20028;-91
2022/11/17 10:59:51;;;;;;;7.72;6.57;;;7.30;99.90;;;;;;6114502;23;20199;-89
2022/11/17 11:02:38;;;;;;;7.45;6.15;;;7.40;99.90;;;;;;6128157;23;20063;-91
2022/11/17 11:05:14;;;;;;;7.45;6.45;;;7.50;99.90;;;;;;6162947;23;20048;-91
2022/11/17 11:07:40;;;;;;;7.88;6.28;;;7.50;99.90;;;;;;6140758;23;20320;-89
2022/11/17 11:10:13;;;;;;;7.75;5.85;;;7.50;99.90;;;;;;6162656;23;20052;-89
2022/11/17 11:12:49;;;;;;;7.30;6.15;;;7.50;99.90;;;;;;6138523;23;20013;-89
2022/11/17 11:15:22;;;;;;;6.93;6.20;;;7.50;99.90;;;;;;6140196;23;20096;-89
2022/11/17 11:17:47;;;;;;;7.75;6.18;;;7.60;99.90;;;;;;6138844;23;20017;-89
2022/11/17 11:20:16;;;;;;;7.18;6.07;;;7.60;99.90;;;;;;6140766;23;20021;-89
2022/11/17 11:22:52;;;;;;;7.65;6.40;;;7.60;99.90;;;;;;6139835;23;20020;-88
2022/11/17 11:25:42;;;;;;;7.80;6.32;;;7.60;99.90;;;;;;6139531;23;20013;-88
2022/11/17 11:28:40;;;;;;;7.38;5.90;;;7.60;99.90;;;;;;6139747;22;20115;-89
2022/11/17 11:31:53;;;;;;;7.82;6.30;;;7.70;99.90;;;;;;6141519;23;20021;-90
2022/11/17 11:34:28;;;;;;;7.80;6.60;;;7.80;99.90;;;;;;6166708;22;20017;-89
2022/11/17 11:37:12;;;;;;;7.20;5.90;;;7.70;99.90;;;;;;6141093;23;20092;-90
2022/11/17 11:40:14;;;;;;;7.03;5.82;;;7.70;99.90;;;;;;6141087;23;20119;-89
2022/11/17 11:42:51;;;;;;;7.32;5.85;;;7.70;99.90;;;;;;6165336;23;20203;-88
2022/11/17 11:45:23;;;;;;;8.85;6.55;;;7.90;99.90;;;;;;6139973;23;20450;-89
2022/11/17 11:48:30;;;;;;;7.97;6.20;;;7.70;99.90;;;;;;6163418;23;20096;-89
2022/11/17 11:51:02;;;;;;;8.00;6.72;;;7.70;99.90;;;;;;6140391;23;20024;-87
2022/11/17 11:54:09;;;;;;;8.70;6.35;;;7.80;99.90;;;;;;6139959;23;20438;-89
2022/11/17 11:56:40;;;;;;;7.82;6.10;;;7.90;99.90;;;;;;6140272;23;20017;-89
2022/11/17 11:59:27;;;;;;;8.18;6.55;;;7.90;99.90;;;;;;6139316;23;20021;-89
2022/11/17 12:02:11;;;;;;;9.30;6.68;;;7.90;99.90;;;;;;6139630;23;20525;-89
2022/11/17 12:04:54;;;;;;;8.35;6.35;;;7.70;99.90;;;;;;6139242;23;20021;-89
2022/11/17 12:07:49;;;;;;;9.88;6.72;;;7.70;99.90;;;;;;6142160;23;20027;-92
2022/11/17 12:10:38;;;;;;;7.43;6.63;;;7.70;99.90;;;;;;6140954;23;20017;-89
2022/11/17 12:13:04;;;;;;;6.82;5.82;;;7.80;99.90;;;;;;6141059;23;20058;-89
2022/11/17 12:15:32;;;;;;;7.72;6.78;;;7.80;99.90;;;;;;6140514;23;20442;-88
2022/11/17 12:18:13;;;;;;;7.55;6.47;;;7.90;99.90;;;;;;6139279;23;20021;-91
2022/11/17 12:20:41;;;;;;;7.47;5.47;;;7.90;99.90;;;;;;6139783;23;20021;-90
2022/11/17 12:23:28;;;;;;;7.80;6.03;;;7.80;99.90;;;;;;6140499;23;20017;-92
2022/11/17 12:25:56;;;;;;;9.40;6.32;;;7.80;99.90;;;;;;6140726;23;20845;-89
2022/11/17 12:28:25;;;;;;;6.78;5.88;;;7.80;99.90;;;;;;6140248;23;20207;-89
2022/11/17 12:30:53;;;;;;;6.55;5.75;;;7.80;99.90;;;;;;6166372;23;20085;-90
2022/11/17 12:33:19;;;;;;;6.35;5.50;;;7.90;99.90;;;;;;6139311;23;20017;-90
2022/11/17 12:36:05;;;;;;;6.47;5.78;;;7.90;99.90;;;;;;6141532;23;20478;-90
2022/11/17 12:38:31;;;;;;;6.97;5.55;;;7.80;99.90;;;;;;6139527;23;20318;-91
2022/11/17 12:40:56;;;;;;;6.50;5.40;;;7.80;99.90;;;;;;6140204;23;20100;-89
2022/11/17 12:43:24;;;;;;;6.80;5.53;;;7.80;99.90;;;;;;6140700;23;20103;-89
2022/11/17 12:46:10;;;;;;;6.05;5.15;;;7.80;99.90;;;;;;6139770;23;20528;-89
2022/11/17 12:48:37;;;;;;;6.90;5.25;;;7.80;99.90;;;;;;6170106;23;20187;-91
2022/11/17 12:51:09;;;;;;;7.15;5.80;;;7.80;99.90;;;;;;6140892;23;20047;-89
2022/11/17 12:54:15;;;;;;;8.50;5.38;;;7.80;99.90;;;;;;6140963;23;20028;-91
2022/11/17 12:56:56;;;;;;;6.28;5.47;;;7.80;99.90;;;;;;6172145;23;20090;-89
2022/11/17 12:59:50;;;;;;;6.53;5.10;;;7.90;99.90;;;;;;6167681;23;20025;-89
2022/11/17 13:02:33;;;;;;;7.28;5.25;;;8.00;99.90;;;;;;6141277;23;20063;-89
2022/11/17 13:05:07;;;;;;;5.75;5.00;;;8.10;99.90;;;;;;6140281;23;20371;-90
2022/11/17 13:07:33;;;;;;;6.55;4.70;;;8.20;99.90;;;;;;6140924;23;20507;-90
2022/11/17 13:10:00;;;;;;;6.82;5.47;;;8.10;99.90;;;;;;6140152;23;20017;-90
2022/11/17 13:12:31;;;;;;;8.50;5.30;;;8.10;99.90;;;;;;6140311;23;20477;-91
2022/11/17 13:14:59;;;;;;;7.20;5.15;;;8.10;99.90;;;;;;6139954;23;20028;-89
2022/11/17 13:17:40;;;;;;;7.30;5.43;;;8.10;99.90;;;;;;6141676;23;20021;-90
2022/11/17 13:20:23;;;;;;;6.10;4.93;;;8.10;99.90;;;;;;6140300;23;20021;-90
2022/11/17 13:23:03;;;;;;;5.95;5.10;;;8.20;99.90;;;;;;6142092;23;20016;-90
2022/11/17 13:25:32;;;;;;;6.03;4.88;;;8.20;99.90;;;;;;6141290;23;20040;-91
2022/11/17 13:27:58;;;;;;;5.28;4.78;;;8.20;99.90;;;;;;6140304;23;20085;-90
2022/11/17 13:30:26;;;;;;;7.60;5.53;;;8.20;99.90;;;;;;6140469;23;20127;-89
2022/11/17 13:32:54;;;;;;;7.65;5.25;;;8.20;99.90;;;;;;6139158;23;20121;-89
2022/11/17 13:35:29;;;;;;;7.05;5.38;;;8.20;99.90;;;;;;6165213;23;20031;-90